sensor_id;sensor_type;location;lat;lon;timestamp;P1;durP1;ratioP1;P2;durP2;ratioP2
46613;SDS011;32338;50.430;6.806;2023-05-02T00:00:19;78.65;;;49.10;;
46613;SDS011;32338;50.430;6.806;2023-05-02T00:02:46;82.68;;;49.50;;
46613;SDS011;32338;50.430;6.806;2023-05-02T00:05:13;87.97;;;51.95;;
46613;SDS011;32338;50.430;6.806;2023-05-02T00:07:39;89.35;;;53.38;;
46613;SDS011;32338;50.430;6.806;2023-05-02T00:10:06;85.60;;;51.75;;
46613;SDS011;32338;50.430;6.806;2023-05-02T00:12:35;79.85;;;47.80;;
46613;SDS011;32338;50.430;6.806;2023-05-02T00:15:02;81.78;;;48.47;;
46613;SDS011;32338;50.430;6.806;2023-05-02T00:17:29;87.95;;;52.10;;
46613;SDS011;32338;50.430;6.806;2023-05-02T00:19:56;89.43;;;55.90;;
46613;SDS011;32338;50.430;6.806;2023-05-02T00:22:22;98.65;;;55.88;;
46613;SDS011;32338;50.430;6.806;2023-05-02T00:24:49;92.63;;;55.28;;
46613;SDS011;32338;50.430;6.806;2023-05-02T00:27:16;101.72;;;58.58;;
46613;SDS011;32338;50.430;6.806;2023-05-02T00:29:44;98.70;;;57.53;;
46613;SDS011;32338;50.430;6.806;2023-05-02T00:32:12;97.70;;;58.83;;
46613;SDS011;32338;50.430;6.806;2023-05-02T00:34:39;97.15;;;57.40;;
46613;SDS011;32338;50.430;6.806;2023-05-02T00:37:05;96.10;;;55.28;;
46613;SDS011;32338;50.430;6.806;2023-05-02T00:39:32;94.68;;;55.55;;
46613;SDS011;32338;50.430;6.806;2023-05-02T00:41:59;94.25;;;56.15;;
46613;SDS011;32338;50.430;6.806;2023-05-02T00:44:26;88.88;;;55.33;;
46613;SDS011;32338;50.430;6.806;2023-05-02T00:46:54;97.32;;;57.25;;
46613;SDS011;32338;50.430;6.806;2023-05-02T00:49:21;92.80;;;55.25;;
46613;SDS011;32338;50.430;6.806;2023-05-02T00:51:48;103.05;;;58.88;;
46613;SDS011;32338;50.430;6.806;2023-05-02T00:54:15;97.72;;;55.80;;
46613;SDS011;32338;50.430;6.806;2023-05-02T00:56:42;102.63;;;59.05;;
46613;SDS011;32338;50.430;6.806;2023-05-02T00:59:08;108.18;;;60.00;;
46613;SDS011;32338;50.430;6.806;2023-05-02T01:01:39;101.45;;;57.80;;
46613;SDS011;32338;50.430;6.806;2023-05-02T01:04:20;98.15;;;54.90;;
46613;SDS011;32338;50.430;6.806;2023-05-02T01:07:00;97.68;;;57.22;;
46613;SDS011;32338;50.430;6.806;2023-05-02T01:09:38;95.53;;;54.65;;
46613;SDS011;32338;50.430;6.806;2023-05-02T01:12:18;98.80;;;56.47;;
46613;SDS011;32338;50.430;6.806;2023-05-02T01:14:52;109.65;;;60.00;;
46613;SDS011;32338;50.430;6.806;2023-05-02T01:17:21;105.72;;;59.75;;
46613;SDS011;32338;50.430;6.806;2023-05-02T01:19:52;96.60;;;55.30;;
46613;SDS011;32338;50.430;6.806;2023-05-02T01:22:23;115.60;;;63.15;;
46613;SDS011;32338;50.430;6.806;2023-05-02T01:24:53;103.20;;;58.42;;
46613;SDS011;32338;50.430;6.806;2023-05-02T01:27:27;110.40;;;59.63;;
46613;SDS011;32338;50.430;6.806;2023-05-02T01:30:03;109.20;;;60.50;;
46613;SDS011;32338;50.430;6.806;2023-05-02T01:32:32;111.07;;;61.15;;
46613;SDS011;32338;50.430;6.806;2023-05-02T01:35:02;124.90;;;63.65;;
46613;SDS011;32338;50.430;6.806;2023-05-02T01:37:31;122.65;;;64.20;;
46613;SDS011;32338;50.430;6.806;2023-05-02T01:39:59;133.00;;;66.60;;
46613;SDS011;32338;50.430;6.806;2023-05-02T01:42:28;126.50;;;64.10;;
46613;SDS011;32338;50.430;6.806;2023-05-02T01:44:57;132.77;;;64.72;;
46613;SDS011;32338;50.430;6.806;2023-05-02T01:47:26;135.40;;;66.65;;
46613;SDS011;32338;50.430;6.806;2023-05-02T01:49:57;133.65;;;65.75;;
46613;SDS011;32338;50.430;6.806;2023-05-02T01:52:25;131.07;;;66.72;;
46613;SDS011;32338;50.430;6.806;2023-05-02T01:54:53;135.40;;;66.75;;
46613;SDS011;32338;50.430;6.806;2023-05-02T01:57:22;130.20;;;64.00;;
46613;SDS011;32338;50.430;6.806;2023-05-02T01:59:50;133.15;;;65.70;;
46613;SDS011;32338;50.430;6.806;2023-05-02T02:02:20;134.23;;;65.15;;
46613;SDS011;32338;50.430;6.806;2023-05-02T02:04:49;125.43;;;64.07;;
46613;SDS011;32338;50.430;6.806;2023-05-02T02:07:18;118.28;;;58.72;;
46613;SDS011;32338;50.430;6.806;2023-05-02T02:09:45;125.35;;;63.20;;
46613;SDS011;32338;50.430;6.806;2023-05-02T02:12:14;118.57;;;59.35;;
46613;SDS011;32338;50.430;6.806;2023-05-02T02:14:49;127.57;;;62.05;;
46613;SDS011;32338;50.430;6.806;2023-05-02T02:17:22;123.30;;;61.55;;
46613;SDS011;32338;50.430;6.806;2023-05-02T02:19:53;132.38;;;63.72;;
46613;SDS011;32338;50.430;6.806;2023-05-02T02:22:22;126.35;;;65.03;;
46613;SDS011;32338;50.430;6.806;2023-05-02T02:24:51;131.00;;;65.22;;
46613;SDS011;32338;50.430;6.806;2023-05-02T02:27:19;124.00;;;63.72;;
46613;SDS011;32338;50.430;6.806;2023-05-02T02:29:46;120.13;;;60.58;;
46613;SDS011;32338;50.430;6.806;2023-05-02T02:32:12;137.55;;;63.88;;
46613;SDS011;32338;50.430;6.806;2023-05-02T02:34:39;138.85;;;66.47;;
46613;SDS011;32338;50.430;6.806;2023-05-02T02:37:08;132.63;;;64.60;;
46613;SDS011;32338;50.430;6.806;2023-05-02T02:39:43;120.07;;;60.05;;
46613;SDS011;32338;50.430;6.806;2023-05-02T02:42:21;138.90;;;63.05;;
46613;SDS011;32338;50.430;6.806;2023-05-02T02:44:53;126.25;;;60.45;;
46613;SDS011;32338;50.430;6.806;2023-05-02T02:47:26;119.55;;;59.40;;
46613;SDS011;32338;50.430;6.806;2023-05-02T02:50:01;114.15;;;57.67;;
46613;SDS011;32338;50.430;6.806;2023-05-02T02:52:39;127.57;;;61.75;;
46613;SDS011;32338;50.430;6.806;2023-05-02T02:55:16;135.20;;;63.60;;
46613;SDS011;32338;50.430;6.806;2023-05-02T02:57:50;128.68;;;62.88;;
46613;SDS011;32338;50.430;6.806;2023-05-02T03:00:24;135.55;;;64.40;;
46613;SDS011;32338;50.430;6.806;2023-05-02T03:02:53;114.60;;;58.67;;
46613;SDS011;32338;50.430;6.806;2023-05-02T03:05:21;130.35;;;62.22;;
46613;SDS011;32338;50.430;6.806;2023-05-02T03:07:49;131.35;;;63.00;;
46613;SDS011;32338;50.430;6.806;2023-05-02T03:10:16;138.45;;;62.47;;
46613;SDS011;32338;50.430;6.806;2023-05-02T03:12:43;140.60;;;64.50;;
46613;SDS011;32338;50.430;6.806;2023-05-02T03:18:08;137.63;;;63.75;;
46613;SDS011;32338;50.430;6.806;2023-05-02T03:20:35;142.88;;;63.20;;
46613;SDS011;32338;50.430;6.806;2023-05-02T03:23:03;133.40;;;60.92;;
46613;SDS011;32338;50.430;6.806;2023-05-02T03:25:29;127.20;;;59.15;;
46613;SDS011;32338;50.430;6.806;2023-05-02T03:27:56;134.75;;;60.00;;
46613;SDS011;32338;50.430;6.806;2023-05-02T03:30:22;127.95;;;59.92;;
46613;SDS011;32338;50.430;6.806;2023-05-02T03:32:49;130.27;;;58.92;;
46613;SDS011;32338;50.430;6.806;2023-05-02T03:35:16;122.70;;;58.25;;
46613;SDS011;32338;50.430;6.806;2023-05-02T03:37:43;136.48;;;58.58;;
46613;SDS011;32338;50.430;6.806;2023-05-02T03:40:11;137.52;;;61.88;;
46613;SDS011;32338;50.430;6.806;2023-05-02T03:42:37;136.65;;;61.55;;
46613;SDS011;32338;50.430;6.806;2023-05-02T03:45:05;125.38;;;57.38;;
46613;SDS011;32338;50.430;6.806;2023-05-02T03:47:33;128.15;;;57.15;;
46613;SDS011;32338;50.430;6.806;2023-05-02T03:49:59;128.38;;;54.85;;
46613;SDS011;32338;50.430;6.806;2023-05-02T03:52:27;127.63;;;53.08;;
46613;SDS011;32338;50.430;6.806;2023-05-02T03:54:54;118.30;;;49.97;;
46613;SDS011;32338;50.430;6.806;2023-05-02T03:57:22;103.07;;;46.35;;
46613;SDS011;32338;50.430;6.806;2023-05-02T03:59:48;109.03;;;49.22;;
46613;SDS011;32338;50.430;6.806;2023-05-02T04:02:15;108.13;;;49.53;;
46613;SDS011;32338;50.430;6.806;2023-05-02T04:04:41;112.85;;;49.83;;
46613;SDS011;32338;50.430;6.806;2023-05-02T04:07:08;122.32;;;52.47;;
46613;SDS011;32338;50.430;6.806;2023-05-02T04:09:40;135.20;;;52.47;;
46613;SDS011;32338;50.430;6.806;2023-05-02T04:12:07;133.07;;;52.80;;
46613;SDS011;32338;50.430;6.806;2023-05-02T04:14:35;128.50;;;49.10;;
46613;SDS011;32338;50.430;6.806;2023-05-02T04:17:01;130.05;;;52.88;;
46613;SDS011;32338;50.430;6.806;2023-05-02T04:19:28;139.75;;;50.00;;
46613;SDS011;32338;50.430;6.806;2023-05-02T04:21:55;136.20;;;50.55;;
46613;SDS011;32338;50.430;6.806;2023-05-02T04:24:22;121.88;;;47.15;;
46613;SDS011;32338;50.430;6.806;2023-05-02T04:26:48;125.47;;;45.22;;
46613;SDS011;32338;50.430;6.806;2023-05-02T04:29:15;112.00;;;42.88;;
46613;SDS011;32338;50.430;6.806;2023-05-02T04:31:43;117.57;;;40.70;;
46613;SDS011;32338;50.430;6.806;2023-05-02T04:34:10;109.38;;;40.22;;
46613;SDS011;32338;50.430;6.806;2023-05-02T04:36:36;100.30;;;36.47;;
46613;SDS011;32338;50.430;6.806;2023-05-02T04:39:04;92.60;;;36.75;;
46613;SDS011;32338;50.430;6.806;2023-05-02T04:41:31;98.35;;;36.53;;
46613;SDS011;32338;50.430;6.806;2023-05-02T04:43:58;91.05;;;34.47;;
46613;SDS011;32338;50.430;6.806;2023-05-02T04:46:25;84.35;;;33.95;;
46613;SDS011;32338;50.430;6.806;2023-05-02T04:48:53;77.63;;;30.70;;
46613;SDS011;32338;50.430;6.806;2023-05-02T04:51:19;79.93;;;32.45;;
46613;SDS011;32338;50.430;6.806;2023-05-02T04:53:46;76.90;;;30.75;;
46613;SDS011;32338;50.430;6.806;2023-05-02T04:56:12;75.40;;;29.55;;
46613;SDS011;32338;50.430;6.806;2023-05-02T04:58:39;71.93;;;29.20;;
46613;SDS011;32338;50.430;6.806;2023-05-02T05:01:05;67.85;;;26.98;;
46613;SDS011;32338;50.430;6.806;2023-05-02T05:03:32;64.30;;;26.20;;
46613;SDS011;32338;50.430;6.806;2023-05-02T05:06:00;64.43;;;26.63;;
46613;SDS011;32338;50.430;6.806;2023-05-02T05:08:27;65.47;;;25.85;;
46613;SDS011;32338;50.430;6.806;2023-05-02T05:10:53;62.13;;;25.98;;
46613;SDS011;32338;50.430;6.806;2023-05-02T05:13:20;65.00;;;25.15;;
46613;SDS011;32338;50.430;6.806;2023-05-02T05:15:47;68.57;;;27.25;;
46613;SDS011;32338;50.430;6.806;2023-05-02T05:18:13;59.90;;;25.95;;
46613;SDS011;32338;50.430;6.806;2023-05-02T05:20:40;63.30;;;26.45;;
46613;SDS011;32338;50.430;6.806;2023-05-02T05:23:08;68.75;;;28.23;;
46613;SDS011;32338;50.430;6.806;2023-05-02T05:25:34;62.58;;;25.83;;
46613;SDS011;32338;50.430;6.806;2023-05-02T05:28:01;69.40;;;25.73;;
46613;SDS011;32338;50.430;6.806;2023-05-02T05:30:28;63.13;;;26.25;;
46613;SDS011;32338;50.430;6.806;2023-05-02T05:32:55;62.55;;;24.85;;
46613;SDS011;32338;50.430;6.806;2023-05-02T05:35:22;61.13;;;25.88;;
46613;SDS011;32338;50.430;6.806;2023-05-02T05:37:49;65.47;;;24.85;;
46613;SDS011;32338;50.430;6.806;2023-05-02T05:40:17;67.78;;;26.80;;
46613;SDS011;32338;50.430;6.806;2023-05-02T05:42:45;70.20;;;26.70;;
46613;SDS011;32338;50.430;6.806;2023-05-02T05:45:12;64.28;;;23.70;;
46613;SDS011;32338;50.430;6.806;2023-05-02T05:47:38;67.32;;;26.42;;
46613;SDS011;32338;50.430;6.806;2023-05-02T05:50:06;78.80;;;26.70;;
46613;SDS011;32338;50.430;6.806;2023-05-02T05:52:33;62.28;;;26.33;;
46613;SDS011;32338;50.430;6.806;2023-05-02T05:54:59;71.82;;;25.92;;
46613;SDS011;32338;50.430;6.806;2023-05-02T05:57:27;70.90;;;27.25;;
46613;SDS011;32338;50.430;6.806;2023-05-02T05:59:54;73.53;;;27.63;;
46613;SDS011;32338;50.430;6.806;2023-05-02T06:02:20;78.55;;;31.42;;
46613;SDS011;32338;50.430;6.806;2023-05-02T06:04:47;64.57;;;25.15;;
46613;SDS011;32338;50.430;6.806;2023-05-02T06:07:14;66.10;;;27.17;;
46613;SDS011;32338;50.430;6.806;2023-05-02T06:09:40;56.03;;;23.17;;
46613;SDS011;32338;50.430;6.806;2023-05-02T06:12:07;48.22;;;20.65;;
46613;SDS011;32338;50.430;6.806;2023-05-02T06:14:35;61.38;;;22.65;;
46613;SDS011;32338;50.430;6.806;2023-05-02T06:17:01;55.97;;;20.23;;
46613;SDS011;32338;50.430;6.806;2023-05-02T06:19:28;50.53;;;21.15;;
46613;SDS011;32338;50.430;6.806;2023-05-02T06:21:54;49.42;;;20.95;;
46613;SDS011;32338;50.430;6.806;2023-05-02T06:24:21;50.25;;;21.15;;
46613;SDS011;32338;50.430;6.806;2023-05-02T06:26:48;54.03;;;20.00;;
46613;SDS011;32338;50.430;6.806;2023-05-02T06:29:15;42.25;;;17.58;;
46613;SDS011;32338;50.430;6.806;2023-05-02T06:31:43;46.40;;;18.95;;
46613;SDS011;32338;50.430;6.806;2023-05-02T06:34:10;46.60;;;19.30;;
46613;SDS011;32338;50.430;6.806;2023-05-02T06:36:36;46.13;;;18.25;;
46613;SDS011;32338;50.430;6.806;2023-05-02T06:39:03;46.03;;;18.95;;
46613;SDS011;32338;50.430;6.806;2023-05-02T06:41:29;54.00;;;20.15;;
46613;SDS011;32338;50.430;6.806;2023-05-02T06:43:56;42.08;;;18.90;;
46613;SDS011;32338;50.430;6.806;2023-05-02T06:46:22;40.03;;;17.77;;
46613;SDS011;32338;50.430;6.806;2023-05-02T06:48:50;48.10;;;19.05;;
46613;SDS011;32338;50.430;6.806;2023-05-02T06:51:17;39.05;;;17.63;;
46613;SDS011;32338;50.430;6.806;2023-05-02T06:53:45;46.33;;;18.85;;
46613;SDS011;32338;50.430;6.806;2023-05-02T06:56:11;43.20;;;19.30;;
46613;SDS011;32338;50.430;6.806;2023-05-02T06:58:38;46.42;;;19.70;;
46613;SDS011;32338;50.430;6.806;2023-05-02T07:01:05;38.50;;;19.45;;
46613;SDS011;32338;50.430;6.806;2023-05-02T07:03:31;71.00;;;22.58;;
46613;SDS011;32338;50.430;6.806;2023-05-02T07:06:00;71.78;;;30.48;;
46613;SDS011;32338;50.430;6.806;2023-05-02T07:08:26;75.70;;;31.85;;
46613;SDS011;32338;50.430;6.806;2023-05-02T07:10:53;74.90;;;31.65;;
46613;SDS011;32338;50.430;6.806;2023-05-02T07:13:19;71.80;;;31.10;;
46613;SDS011;32338;50.430;6.806;2023-05-02T07:15:46;69.20;;;29.67;;
46613;SDS011;32338;50.430;6.806;2023-05-02T07:18:13;82.32;;;31.88;;
46613;SDS011;32338;50.430;6.806;2023-05-02T07:20:39;63.75;;;29.45;;
46613;SDS011;32338;50.430;6.806;2023-05-02T07:23:07;62.05;;;27.52;;
46613;SDS011;32338;50.430;6.806;2023-05-02T07:25:34;68.97;;;29.13;;
46613;SDS011;32338;50.430;6.806;2023-05-02T07:28:01;69.65;;;28.95;;
46613;SDS011;32338;50.430;6.806;2023-05-02T07:30:28;60.38;;;26.30;;
46613;SDS011;32338;50.430;6.806;2023-05-02T07:32:55;56.95;;;24.65;;
46613;SDS011;32338;50.430;6.806;2023-05-02T07:35:22;56.92;;;25.17;;
46613;SDS011;32338;50.430;6.806;2023-05-02T07:37:48;50.00;;;22.83;;
46613;SDS011;32338;50.430;6.806;2023-05-02T07:40:17;52.28;;;23.90;;
46613;SDS011;32338;50.430;6.806;2023-05-02T07:42:43;38.90;;;18.65;;
46613;SDS011;32338;50.430;6.806;2023-05-02T07:45:10;37.47;;;18.40;;
46613;SDS011;32338;50.430;6.806;2023-05-02T07:47:37;24.33;;;13.88;;
46613;SDS011;32338;50.430;6.806;2023-05-02T07:50:04;29.65;;;14.55;;
46613;SDS011;32338;50.430;6.806;2023-05-02T07:52:31;27.40;;;14.05;;
46613;SDS011;32338;50.430;6.806;2023-05-02T07:54:58;24.77;;;14.25;;
46613;SDS011;32338;50.430;6.806;2023-05-02T07:57:26;21.58;;;12.13;;
46613;SDS011;32338;50.430;6.806;2023-05-02T07:59:54;22.75;;;12.20;;
46613;SDS011;32338;50.430;6.806;2023-05-02T08:02:21;21.48;;;11.75;;
46613;SDS011;32338;50.430;6.806;2023-05-02T08:04:48;17.52;;;10.98;;
46613;SDS011;32338;50.430;6.806;2023-05-02T08:07:15;22.90;;;11.15;;
46613;SDS011;32338;50.430;6.806;2023-05-02T08:09:41;9.55;;;7.20;;
46613;SDS011;32338;50.430;6.806;2023-05-02T08:12:08;10.32;;;7.43;;
46613;SDS011;32338;50.430;6.806;2023-05-02T08:14:36;8.77;;;6.97;;
46613;SDS011;32338;50.430;6.806;2023-05-02T08:17:03;8.80;;;7.13;;
46613;SDS011;32338;50.430;6.806;2023-05-02T08:19:29;10.70;;;6.47;;
46613;SDS011;32338;50.430;6.806;2023-05-02T08:21:57;9.02;;;6.50;;
46613;SDS011;32338;50.430;6.806;2023-05-02T08:24:24;8.98;;;7.10;;
46613;SDS011;32338;50.430;6.806;2023-05-02T08:26:51;10.07;;;7.43;;
46613;SDS011;32338;50.430;6.806;2023-05-02T08:29:17;8.63;;;7.50;;
46613;SDS011;32338;50.430;6.806;2023-05-02T08:31:45;12.00;;;7.53;;
46613;SDS011;32338;50.430;6.806;2023-05-02T08:34:12;10.98;;;7.68;;
46613;SDS011;32338;50.430;6.806;2023-05-02T08:36:38;9.02;;;7.40;;
46613;SDS011;32338;50.430;6.806;2023-05-02T08:39:05;11.30;;;8.00;;
46613;SDS011;32338;50.430;6.806;2023-05-02T08:41:33;10.05;;;8.00;;
46613;SDS011;32338;50.430;6.806;2023-05-02T08:44:00;9.93;;;7.65;;
46613;SDS011;32338;50.430;6.806;2023-05-02T08:46:28;9.35;;;7.85;;
46613;SDS011;32338;50.430;6.806;2023-05-02T08:48:58;9.70;;;8.05;;
46613;SDS011;32338;50.430;6.806;2023-05-02T08:51:26;10.57;;;7.97;;
46613;SDS011;32338;50.430;6.806;2023-05-02T08:53:54;14.00;;;8.07;;
46613;SDS011;32338;50.430;6.806;2023-05-02T08:56:22;12.38;;;9.32;;
46613;SDS011;32338;50.430;6.806;2023-05-02T08:58:49;10.20;;;8.20;;
46613;SDS011;32338;50.430;6.806;2023-05-02T09:01:16;13.90;;;8.85;;
46613;SDS011;32338;50.430;6.806;2023-05-02T09:03:45;11.43;;;8.23;;
46613;SDS011;32338;50.430;6.806;2023-05-02T09:06:14;10.70;;;8.73;;
46613;SDS011;32338;50.430;6.806;2023-05-02T09:08:43;12.25;;;8.77;;
46613;SDS011;32338;50.430;6.806;2023-05-02T09:11:12;14.40;;;9.02;;
46613;SDS011;32338;50.430;6.806;2023-05-02T09:13:40;11.07;;;9.32;;
46613;SDS011;32338;50.430;6.806;2023-05-02T09:16:08;12.20;;;8.80;;
46613;SDS011;32338;50.430;6.806;2023-05-02T09:18:37;12.10;;;8.75;;
46613;SDS011;32338;50.430;6.806;2023-05-02T09:21:05;12.07;;;8.80;;
46613;SDS011;32338;50.430;6.806;2023-05-02T09:23:38;10.07;;;8.20;;
46613;SDS011;32338;50.430;6.806;2023-05-02T09:26:09;12.60;;;7.45;;
46613;SDS011;32338;50.430;6.806;2023-05-02T09:28:38;8.32;;;7.53;;
46613;SDS011;32338;50.430;6.806;2023-05-02T09:31:06;8.30;;;7.47;;
46613;SDS011;32338;50.430;6.806;2023-05-02T09:33:33;8.57;;;7.78;;
46613;SDS011;32338;50.430;6.806;2023-05-02T09:36:00;10.85;;;7.75;;
46613;SDS011;32338;50.430;6.806;2023-05-02T09:38:27;9.95;;;7.38;;
46613;SDS011;32338;50.430;6.806;2023-05-02T09:40:54;10.07;;;8.00;;
46613;SDS011;32338;50.430;6.806;2023-05-02T09:43:21;9.90;;;7.88;;
46613;SDS011;32338;50.430;6.806;2023-05-02T09:45:55;15.95;;;8.50;;
46613;SDS011;32338;50.430;6.806;2023-05-02T09:48:22;10.88;;;8.45;;
46613;SDS011;32338;50.430;6.806;2023-05-02T09:50:49;8.55;;;7.75;;
46613;SDS011;32338;50.430;6.806;2023-05-02T09:53:15;9.80;;;8.45;;
46613;SDS011;32338;50.430;6.806;2023-05-02T09:55:42;8.73;;;7.82;;
46613;SDS011;32338;50.430;6.806;2023-05-02T09:58:19;8.25;;;7.45;;
46613;SDS011;32338;50.430;6.806;2023-05-02T10:00:47;13.88;;;7.75;;
46613;SDS011;32338;50.430;6.806;2023-05-02T10:03:15;8.90;;;7.97;;
46613;SDS011;32338;50.430;6.806;2023-05-02T10:05:43;10.50;;;8.90;;
46613;SDS011;32338;50.430;6.806;2023-05-02T10:08:11;11.40;;;9.15;;
46613;SDS011;32338;50.430;6.806;2023-05-02T10:10:39;11.90;;;10.52;;
46613;SDS011;32338;50.430;6.806;2023-05-02T10:13:08;14.52;;;11.98;;
46613;SDS011;32338;50.430;6.806;2023-05-02T10:15:41;20.63;;;12.30;;
46613;SDS011;32338;50.430;6.806;2023-05-02T10:18:11;15.40;;;12.07;;
46613;SDS011;32338;50.430;6.806;2023-05-02T10:20:41;15.88;;;11.05;;
46613;SDS011;32338;50.430;6.806;2023-05-02T10:23:09;15.77;;;11.05;;
46613;SDS011;32338;50.430;6.806;2023-05-02T10:25:37;14.60;;;10.57;;
46613;SDS011;32338;50.430;6.806;2023-05-02T10:28:05;16.20;;;10.45;;
46613;SDS011;32338;50.430;6.806;2023-05-02T10:30:32;12.85;;;9.70;;
46613;SDS011;32338;50.430;6.806;2023-05-02T10:33:01;12.02;;;9.73;;
46613;SDS011;32338;50.430;6.806;2023-05-02T10:35:28;12.82;;;8.93;;
46613;SDS011;32338;50.430;6.806;2023-05-02T10:37:57;12.63;;;10.13;;
46613;SDS011;32338;50.430;6.806;2023-05-02T10:40:25;15.10;;;10.80;;
46613;SDS011;32338;50.430;6.806;2023-05-02T10:42:52;14.02;;;9.68;;
46613;SDS011;32338;50.430;6.806;2023-05-02T10:45:29;15.13;;;11.13;;
46613;SDS011;32338;50.430;6.806;2023-05-02T10:48:14;11.23;;;8.60;;
46613;SDS011;32338;50.430;6.806;2023-05-02T10:50:42;9.43;;;8.40;;
46613;SDS011;32338;50.430;6.806;2023-05-02T10:53:21;9.48;;;8.10;;
46613;SDS011;32338;50.430;6.806;2023-05-02T10:56:08;9.85;;;8.02;;
46613;SDS011;32338;50.430;6.806;2023-05-02T10:58:37;10.43;;;9.10;;
46613;SDS011;32338;50.430;6.806;2023-05-02T11:04:02;10.85;;;8.70;;
46613;SDS011;32338;50.430;6.806;2023-05-02T11:06:30;7.85;;;7.18;;
46613;SDS011;32338;50.430;6.806;2023-05-02T11:11:58;8.15;;;6.78;;
46613;SDS011;32338;50.430;6.806;2023-05-02T11:14:42;7.35;;;6.03;;
46613;SDS011;32338;50.430;6.806;2023-05-02T11:17:12;7.00;;;6.32;;
46613;SDS011;32338;50.430;6.806;2023-05-02T11:22:53;9.73;;;5.95;;
46613;SDS011;32338;50.430;6.806;2023-05-02T11:25:31;6.85;;;4.75;;
46613;SDS011;32338;50.430;6.806;2023-05-02T11:28:00;5.22;;;4.20;;
46613;SDS011;32338;50.430;6.806;2023-05-02T11:30:36;8.15;;;3.85;;
46613;SDS011;32338;50.430;6.806;2023-05-02T11:33:14;6.35;;;4.22;;
46613;SDS011;32338;50.430;6.806;2023-05-02T11:35:45;6.65;;;4.22;;
46613;SDS011;32338;50.430;6.806;2023-05-02T11:38:17;5.20;;;4.25;;
46613;SDS011;32338;50.430;6.806;2023-05-02T11:40:48;4.35;;;3.67;;
46613;SDS011;32338;50.430;6.806;2023-05-02T11:43:17;4.60;;;3.60;;
46613;SDS011;32338;50.430;6.806;2023-05-02T11:45:45;5.53;;;3.63;;
46613;SDS011;32338;50.430;6.806;2023-05-02T11:48:13;4.40;;;3.53;;
46613;SDS011;32338;50.430;6.806;2023-05-02T11:50:42;7.10;;;3.85;;
46613;SDS011;32338;50.430;6.806;2023-05-02T11:53:10;6.72;;;3.72;;
46613;SDS011;32338;50.430;6.806;2023-05-02T11:55:42;5.22;;;3.67;;
46613;SDS011;32338;50.430;6.806;2023-05-02T11:58:11;5.68;;;3.65;;
46613;SDS011;32338;50.430;6.806;2023-05-02T12:00:39;6.22;;;4.03;;
46613;SDS011;32338;50.430;6.806;2023-05-02T12:03:05;8.45;;;5.38;;
46613;SDS011;32338;50.430;6.806;2023-05-02T12:05:32;6.05;;;5.47;;
46613;SDS011;32338;50.430;6.806;2023-05-02T12:07:59;6.53;;;4.70;;
46613;SDS011;32338;50.430;6.806;2023-05-02T12:10:34;7.07;;;5.55;;
46613;SDS011;32338;50.430;6.806;2023-05-02T12:13:04;6.20;;;4.80;;
46613;SDS011;32338;50.430;6.806;2023-05-02T12:15:31;5.05;;;4.13;;
46613;SDS011;32338;50.430;6.806;2023-05-02T12:17:58;5.45;;;4.45;;
46613;SDS011;32338;50.430;6.806;2023-05-02T12:20:25;5.85;;;3.97;;
46613;SDS011;32338;50.430;6.806;2023-05-02T12:22:52;6.40;;;4.50;;
46613;SDS011;32338;50.430;6.806;2023-05-02T12:25:18;8.55;;;3.47;;
46613;SDS011;32338;50.430;6.806;2023-05-02T12:27:57;4.10;;;3.08;;
46613;SDS011;32338;50.430;6.806;2023-05-02T12:30:26;6.22;;;3.30;;
46613;SDS011;32338;50.430;6.806;2023-05-02T12:32:55;4.00;;;3.60;;
46613;SDS011;32338;50.430;6.806;2023-05-02T12:35:23;8.88;;;3.92;;
46613;SDS011;32338;50.430;6.806;2023-05-02T12:37:51;4.93;;;3.40;;
46613;SDS011;32338;50.430;6.806;2023-05-02T12:40:18;4.88;;;3.20;;
46613;SDS011;32338;50.430;6.806;2023-05-02T12:42:56;4.97;;;3.20;;
46613;SDS011;32338;50.430;6.806;2023-05-02T12:45:26;5.88;;;3.25;;
46613;SDS011;32338;50.430;6.806;2023-05-02T12:47:57;5.05;;;3.90;;
46613;SDS011;32338;50.430;6.806;2023-05-02T12:50:34;7.28;;;3.75;;
46613;SDS011;32338;50.430;6.806;2023-05-02T12:53:01;8.23;;;3.65;;
46613;SDS011;32338;50.430;6.806;2023-05-02T12:55:28;8.55;;;3.92;;
46613;SDS011;32338;50.430;6.806;2023-05-02T12:57:59;8.32;;;3.67;;
46613;SDS011;32338;50.430;6.806;2023-05-02T13:00:28;6.15;;;3.78;;
46613;SDS011;32338;50.430;6.806;2023-05-02T13:02:55;11.85;;;4.38;;
46613;SDS011;32338;50.430;6.806;2023-05-02T13:05:22;9.43;;;4.47;;
46613;SDS011;32338;50.430;6.806;2023-05-02T13:07:48;7.15;;;3.15;;
46613;SDS011;32338;50.430;6.806;2023-05-02T13:10:15;6.95;;;4.10;;
46613;SDS011;32338;50.430;6.806;2023-05-02T13:12:43;5.75;;;3.67;;
46613;SDS011;32338;50.430;6.806;2023-05-02T13:15:10;5.68;;;3.83;;
46613;SDS011;32338;50.430;6.806;2023-05-02T13:17:39;9.00;;;3.95;;
46613;SDS011;32338;50.430;6.806;2023-05-02T13:20:06;8.55;;;4.20;;
46613;SDS011;32338;50.430;6.806;2023-05-02T13:22:34;8.18;;;4.82;;
46613;SDS011;32338;50.430;6.806;2023-05-02T13:25:01;6.40;;;3.60;;
46613;SDS011;32338;50.430;6.806;2023-05-02T13:27:28;8.73;;;4.32;;
46613;SDS011;32338;50.430;6.806;2023-05-02T13:29:55;6.82;;;3.47;;
46613;SDS011;32338;50.430;6.806;2023-05-02T13:32:21;8.07;;;3.40;;
46613;SDS011;32338;50.430;6.806;2023-05-02T13:34:49;8.30;;;3.80;;
46613;SDS011;32338;50.430;6.806;2023-05-02T13:37:16;6.47;;;3.30;;
46613;SDS011;32338;50.430;6.806;2023-05-02T13:39:42;8.27;;;3.72;;
46613;SDS011;32338;50.430;6.806;2023-05-02T13:42:10;6.47;;;3.13;;
46613;SDS011;32338;50.430;6.806;2023-05-02T13:44:36;9.85;;;4.00;;
46613;SDS011;32338;50.430;6.806;2023-05-02T13:47:03;8.38;;;3.50;;
46613;SDS011;32338;50.430;6.806;2023-05-02T13:49:29;5.70;;;3.85;;
46613;SDS011;32338;50.430;6.806;2023-05-02T13:51:57;8.63;;;3.47;;
46613;SDS011;32338;50.430;6.806;2023-05-02T13:54:24;7.65;;;3.95;;
46613;SDS011;32338;50.430;6.806;2023-05-02T13:56:51;8.05;;;4.07;;
46613;SDS011;32338;50.430;6.806;2023-05-02T13:59:17;9.07;;;4.10;;
46613;SDS011;32338;50.430;6.806;2023-05-02T14:01:44;6.50;;;3.92;;
46613;SDS011;32338;50.430;6.806;2023-05-02T14:04:10;7.40;;;4.18;;
46613;SDS011;32338;50.430;6.806;2023-05-02T14:06:37;9.23;;;3.60;;
46613;SDS011;32338;50.430;6.806;2023-05-02T14:09:05;8.60;;;4.20;;
46613;SDS011;32338;50.430;6.806;2023-05-02T14:11:32;6.72;;;4.38;;
46613;SDS011;32338;50.430;6.806;2023-05-02T14:13:59;13.27;;;4.47;;
46613;SDS011;32338;50.430;6.806;2023-05-02T14:16:25;9.82;;;4.22;;
46613;SDS011;32338;50.430;6.806;2023-05-02T14:18:52;6.72;;;4.07;;
46613;SDS011;32338;50.430;6.806;2023-05-02T14:21:19;6.05;;;3.97;;
46613;SDS011;32338;50.430;6.806;2023-05-02T14:23:45;6.43;;;4.22;;
46613;SDS011;32338;50.430;6.806;2023-05-02T14:26:13;6.72;;;4.35;;
46613;SDS011;32338;50.430;6.806;2023-05-02T14:28:40;11.27;;;4.38;;
46613;SDS011;32338;50.430;6.806;2023-05-02T14:31:07;6.03;;;4.80;;
46613;SDS011;32338;50.430;6.806;2023-05-02T14:33:33;11.60;;;5.18;;
46613;SDS011;32338;50.430;6.806;2023-05-02T14:36:00;9.25;;;5.25;;
46613;SDS011;32338;50.430;6.806;2023-05-02T14:38:27;9.90;;;4.97;;
46613;SDS011;32338;50.430;6.806;2023-05-02T14:40:54;10.25;;;4.93;;
46613;SDS011;32338;50.430;6.806;2023-05-02T14:43:22;13.52;;;4.88;;
46613;SDS011;32338;50.430;6.806;2023-05-02T14:45:49;11.52;;;4.68;;